Terminal Aerodrome Forecast
Issued by NWS Albany, NY

Home | Current Version | Previous Version | Text Only | Print | Product List | Glossary On
Versions: 1 2 3 4 5 6 7 8 9 10 11 12 13 14 15
667
FTUS41 KALY 131720
TAFGFL
TAF
KGFL 131720Z 1318/1418 27015G25KT P6SM FEW050
     FM132000 29017G27KT P6SM FEW045
     FM132300 31010G18KT P6SM FEW040
     FM140500 33008KT P6SM SCT035
     FM141600 VRB05KT P6SM SKC=

USA.gov is the U.S. government's official web portal to all federal, state and local government web resources and services.